sensor_id;sensor_type;location;lat;lon;timestamp;temperature;humidity
73777;DHT22;62088;50.240;2.696;2023-12-28T00:00:54;10.10;84.20
73777;DHT22;62088;50.240;2.696;2023-12-28T00:03:21;10.10;84.30
73777;DHT22;62088;50.240;2.696;2023-12-28T00:05:49;10.10;84.30
73777;DHT22;62088;50.240;2.696;2023-12-28T00:08:16;10.10;84.30
73777;DHT22;62088;50.240;2.696;2023-12-28T00:10:44;10.10;84.30
73777;DHT22;62088;50.240;2.696;2023-12-28T00:13:11;10.10;84.30
73777;DHT22;62088;50.240;2.696;2023-12-28T00:15:38;10.10;84.30
73777;DHT22;62088;50.240;2.696;2023-12-28T00:18:05;10.10;84.40
73777;DHT22;62088;50.240;2.696;2023-12-28T00:20:33;10.10;84.30
73777;DHT22;62088;50.240;2.696;2023-12-28T00:23:00;10.10;84.30
73777;DHT22;62088;50.240;2.696;2023-12-28T00:25:27;10.20;84.30
73777;DHT22;62088;50.240;2.696;2023-12-28T00:27:54;10.10;84.30
73777;DHT22;62088;50.240;2.696;2023-12-28T00:30:22;10.10;84.30
73777;DHT22;62088;50.240;2.696;2023-12-28T00:32:49;10.10;84.30
73777;DHT22;62088;50.240;2.696;2023-12-28T00:35:16;10.20;84.30
73777;DHT22;62088;50.240;2.696;2023-12-28T00:37:43;10.10;84.30
73777;DHT22;62088;50.240;2.696;2023-12-28T00:40:11;10.20;84.30
73777;DHT22;62088;50.240;2.696;2023-12-28T00:42:38;10.20;84.30
73777;DHT22;62088;50.240;2.696;2023-12-28T00:45:09;10.20;84.30
73777;DHT22;62088;50.240;2.696;2023-12-28T00:47:37;10.10;84.40
73777;DHT22;62088;50.240;2.696;2023-12-28T00:50:04;10.10;84.30
73777;DHT22;62088;50.240;2.696;2023-12-28T00:52:32;10.20;84.30
73777;DHT22;62088;50.240;2.696;2023-12-28T00:54:59;10.20;84.30
73777;DHT22;62088;50.240;2.696;2023-12-28T00:57:26;10.10;84.30
73777;DHT22;62088;50.240;2.696;2023-12-28T00:59:53;10.10;84.30
73777;DHT22;62088;50.240;2.696;2023-12-28T01:02:20;10.10;84.30
73777;DHT22;62088;50.240;2.696;2023-12-28T01:04:48;10.10;84.30
73777;DHT22;62088;50.240;2.696;2023-12-28T01:07:15;10.10;84.30
73777;DHT22;62088;50.240;2.696;2023-12-28T01:09:42;10.20;84.30
73777;DHT22;62088;50.240;2.696;2023-12-28T01:12:10;10.10;84.30
73777;DHT22;62088;50.240;2.696;2023-12-28T01:14:37;10.10;84.30
73777;DHT22;62088;50.240;2.696;2023-12-28T01:17:04;10.10;84.30
73777;DHT22;62088;50.240;2.696;2023-12-28T01:19:31;10.10;84.30
73777;DHT22;62088;50.240;2.696;2023-12-28T01:21:58;10.10;84.30
73777;DHT22;62088;50.240;2.696;2023-12-28T01:24:25;10.10;84.30
73777;DHT22;62088;50.240;2.696;2023-12-28T01:26:53;10.10;84.30
73777;DHT22;62088;50.240;2.696;2023-12-28T01:29:21;10.10;84.30
73777;DHT22;62088;50.240;2.696;2023-12-28T01:31:49;10.10;84.30
73777;DHT22;62088;50.240;2.696;2023-12-28T01:34:16;10.10;84.30
73777;DHT22;62088;50.240;2.696;2023-12-28T01:36:43;10.10;84.30
73777;DHT22;62088;50.240;2.696;2023-12-28T01:39:11;10.10;84.30
73777;DHT22;62088;50.240;2.696;2023-12-28T01:41:39;10.10;84.40
73777;DHT22;62088;50.240;2.696;2023-12-28T01:44:06;10.10;84.30
73777;DHT22;62088;50.240;2.696;2023-12-28T01:46:34;10.10;84.30
73777;DHT22;62088;50.240;2.696;2023-12-28T01:49:01;10.00;84.30
73777;DHT22;62088;50.240;2.696;2023-12-28T01:51:29;10.10;84.30
73777;DHT22;62088;50.240;2.696;2023-12-28T01:53:57;10.00;84.30
73777;DHT22;62088;50.240;2.696;2023-12-28T01:56:25;10.00;84.30
73777;DHT22;62088;50.240;2.696;2023-12-28T01:58:53;10.10;84.30
73777;DHT22;62088;50.240;2.696;2023-12-28T02:01:21;10.00;84.30
73777;DHT22;62088;50.240;2.696;2023-12-28T02:03:49;10.10;84.30
73777;DHT22;62088;50.240;2.696;2023-12-28T02:06:16;10.10;84.30
73777;DHT22;62088;50.240;2.696;2023-12-28T02:08:44;10.10;84.30
73777;DHT22;62088;50.240;2.696;2023-12-28T02:11:11;10.10;84.30
73777;DHT22;62088;50.240;2.696;2023-12-28T02:13:38;10.10;84.30
73777;DHT22;62088;50.240;2.696;2023-12-28T02:16:20;10.00;84.20
73777;DHT22;62088;50.240;2.696;2023-12-28T02:18:52;10.10;84.20
73777;DHT22;62088;50.240;2.696;2023-12-28T02:21:20;10.10;84.20
73777;DHT22;62088;50.240;2.696;2023-12-28T02:23:49;10.00;84.10
73777;DHT22;62088;50.240;2.696;2023-12-28T02:26:16;10.10;84.10
73777;DHT22;62088;50.240;2.696;2023-12-28T02:28:44;10.10;84.10
73777;DHT22;62088;50.240;2.696;2023-12-28T02:31:28;10.10;84.10
73777;DHT22;62088;50.240;2.696;2023-12-28T02:34:00;10.10;84.10
73777;DHT22;62088;50.240;2.696;2023-12-28T02:36:33;10.00;84.10
73777;DHT22;62088;50.240;2.696;2023-12-28T02:39:03;10.10;84.10
73777;DHT22;62088;50.240;2.696;2023-12-28T02:41:31;10.00;84.10
73777;DHT22;62088;50.240;2.696;2023-12-28T02:43:59;10.00;84.10
73777;DHT22;62088;50.240;2.696;2023-12-28T02:46:27;10.00;84.10
73777;DHT22;62088;50.240;2.696;2023-12-28T02:48:54;10.00;84.10
73777;DHT22;62088;50.240;2.696;2023-12-28T02:51:25;10.00;84.10
73777;DHT22;62088;50.240;2.696;2023-12-28T02:53:52;10.00;84.10
73777;DHT22;62088;50.240;2.696;2023-12-28T02:56:19;10.00;84.10
73777;DHT22;62088;50.240;2.696;2023-12-28T02:58:46;10.00;84.10
73777;DHT22;62088;50.240;2.696;2023-12-28T03:01:13;10.00;84.00
73777;DHT22;62088;50.240;2.696;2023-12-28T03:03:40;10.00;84.00
73777;DHT22;62088;50.240;2.696;2023-12-28T03:06:08;10.00;83.90
73777;DHT22;62088;50.240;2.696;2023-12-28T03:08:35;10.00;83.90
73777;DHT22;62088;50.240;2.696;2023-12-28T03:11:02;10.00;83.80
73777;DHT22;62088;50.240;2.696;2023-12-28T03:13:29;9.90;83.80
73777;DHT22;62088;50.240;2.696;2023-12-28T03:15:56;9.90;83.70
73777;DHT22;62088;50.240;2.696;2023-12-28T03:18:24;9.90;83.70
73777;DHT22;62088;50.240;2.696;2023-12-28T03:20:51;9.90;83.70
73777;DHT22;62088;50.240;2.696;2023-12-28T03:23:19;9.90;83.70
73777;DHT22;62088;50.240;2.696;2023-12-28T03:25:46;9.90;83.70
73777;DHT22;62088;50.240;2.696;2023-12-28T03:28:13;9.90;83.70
73777;DHT22;62088;50.240;2.696;2023-12-28T03:30:40;9.90;83.70
73777;DHT22;62088;50.240;2.696;2023-12-28T03:33:07;9.90;83.70
73777;DHT22;62088;50.240;2.696;2023-12-28T03:35:34;9.90;83.70
73777;DHT22;62088;50.240;2.696;2023-12-28T03:38:02;9.90;83.70
73777;DHT22;62088;50.240;2.696;2023-12-28T03:40:29;9.90;83.70
73777;DHT22;62088;50.240;2.696;2023-12-28T03:42:56;9.90;83.70
73777;DHT22;62088;50.240;2.696;2023-12-28T03:45:24;9.90;83.60
73777;DHT22;62088;50.240;2.696;2023-12-28T03:47:51;9.90;83.60
73777;DHT22;62088;50.240;2.696;2023-12-28T03:50:18;9.90;83.50
73777;DHT22;62088;50.240;2.696;2023-12-28T03:52:46;9.90;83.50
73777;DHT22;62088;50.240;2.696;2023-12-28T03:55:13;9.90;83.50
73777;DHT22;62088;50.240;2.696;2023-12-28T03:57:40;9.90;83.50
73777;DHT22;62088;50.240;2.696;2023-12-28T04:00:09;9.80;83.40
73777;DHT22;62088;50.240;2.696;2023-12-28T04:02:39;9.80;83.40
73777;DHT22;62088;50.240;2.696;2023-12-28T04:05:07;9.80;83.30
73777;DHT22;62088;50.240;2.696;2023-12-28T04:07:34;9.80;83.30
73777;DHT22;62088;50.240;2.696;2023-12-28T04:10:02;9.80;83.30
73777;DHT22;62088;50.240;2.696;2023-12-28T04:12:29;9.70;83.30
73777;DHT22;62088;50.240;2.696;2023-12-28T04:14:57;9.70;83.30
73777;DHT22;62088;50.240;2.696;2023-12-28T04:17:24;9.70;83.20
73777;DHT22;62088;50.240;2.696;2023-12-28T04:19:51;9.70;83.20
73777;DHT22;62088;50.240;2.696;2023-12-28T04:22:19;9.70;83.20
73777;DHT22;62088;50.240;2.696;2023-12-28T04:24:46;9.70;83.30
73777;DHT22;62088;50.240;2.696;2023-12-28T04:27:13;9.60;83.20
73777;DHT22;62088;50.240;2.696;2023-12-28T04:29:40;9.70;83.20
73777;DHT22;62088;50.240;2.696;2023-12-28T04:32:07;9.60;83.20
73777;DHT22;62088;50.240;2.696;2023-12-28T04:34:35;9.60;83.20
73777;DHT22;62088;50.240;2.696;2023-12-28T04:37:03;9.60;83.20
73777;DHT22;62088;50.240;2.696;2023-12-28T04:39:30;9.60;83.20
73777;DHT22;62088;50.240;2.696;2023-12-28T04:41:57;9.60;83.20
73777;DHT22;62088;50.240;2.696;2023-12-28T04:44:24;9.60;83.20
73777;DHT22;62088;50.240;2.696;2023-12-28T04:46:52;9.60;83.10
73777;DHT22;62088;50.240;2.696;2023-12-28T04:49:20;9.60;83.20
73777;DHT22;62088;50.240;2.696;2023-12-28T04:51:47;9.60;83.20
73777;DHT22;62088;50.240;2.696;2023-12-28T04:54:15;9.50;83.20
73777;DHT22;62088;50.240;2.696;2023-12-28T04:56:42;9.50;83.20
73777;DHT22;62088;50.240;2.696;2023-12-28T04:59:09;9.50;83.20
73777;DHT22;62088;50.240;2.696;2023-12-28T05:01:43;9.50;83.20
73777;DHT22;62088;50.240;2.696;2023-12-28T05:04:11;9.50;83.30
73777;DHT22;62088;50.240;2.696;2023-12-28T05:06:43;9.50;83.30
73777;DHT22;62088;50.240;2.696;2023-12-28T05:09:12;9.50;83.30
73777;DHT22;62088;50.240;2.696;2023-12-28T05:11:39;9.50;83.30
73777;DHT22;62088;50.240;2.696;2023-12-28T05:14:06;9.40;83.30
73777;DHT22;62088;50.240;2.696;2023-12-28T05:16:36;9.40;83.30
73777;DHT22;62088;50.240;2.696;2023-12-28T05:19:03;9.40;83.30
73777;DHT22;62088;50.240;2.696;2023-12-28T05:21:31;9.40;83.20
73777;DHT22;62088;50.240;2.696;2023-12-28T05:23:58;9.40;83.30
73777;DHT22;62088;50.240;2.696;2023-12-28T05:26:25;9.40;83.30
73777;DHT22;62088;50.240;2.696;2023-12-28T05:28:53;9.40;83.20
73777;DHT22;62088;50.240;2.696;2023-12-28T05:31:21;9.40;83.20
73777;DHT22;62088;50.240;2.696;2023-12-28T05:33:48;9.40;83.20
73777;DHT22;62088;50.240;2.696;2023-12-28T05:36:15;9.40;83.20
73777;DHT22;62088;50.240;2.696;2023-12-28T05:38:43;9.40;83.20
73777;DHT22;62088;50.240;2.696;2023-12-28T05:41:10;9.40;83.20
73777;DHT22;62088;50.240;2.696;2023-12-28T05:43:38;9.40;83.20
73777;DHT22;62088;50.240;2.696;2023-12-28T05:46:06;9.40;83.20
73777;DHT22;62088;50.240;2.696;2023-12-28T05:48:33;9.40;83.20
73777;DHT22;62088;50.240;2.696;2023-12-28T05:51:00;9.40;83.20
73777;DHT22;62088;50.240;2.696;2023-12-28T05:53:28;9.40;83.10
73777;DHT22;62088;50.240;2.696;2023-12-28T05:55:56;9.40;83.20
73777;DHT22;62088;50.240;2.696;2023-12-28T05:58:23;9.40;83.20
73777;DHT22;62088;50.240;2.696;2023-12-28T06:00:50;9.40;83.10
73777;DHT22;62088;50.240;2.696;2023-12-28T06:03:17;9.30;83.20
73777;DHT22;62088;50.240;2.696;2023-12-28T06:05:45;9.30;83.20
73777;DHT22;62088;50.240;2.696;2023-12-28T06:08:13;9.40;83.20
73777;DHT22;62088;50.240;2.696;2023-12-28T06:10:40;9.40;83.20
73777;DHT22;62088;50.240;2.696;2023-12-28T06:13:07;9.40;83.20
73777;DHT22;62088;50.240;2.696;2023-12-28T06:15:34;9.40;83.20
73777;DHT22;62088;50.240;2.696;2023-12-28T06:18:01;9.40;83.10
73777;DHT22;62088;50.240;2.696;2023-12-28T06:20:30;9.40;83.20
73777;DHT22;62088;50.240;2.696;2023-12-28T06:22:57;9.40;83.20
73777;DHT22;62088;50.240;2.696;2023-12-28T06:25:24;9.40;83.20
73777;DHT22;62088;50.240;2.696;2023-12-28T06:27:52;9.40;83.20
73777;DHT22;62088;50.240;2.696;2023-12-28T06:30:37;9.40;83.10
73777;DHT22;62088;50.240;2.696;2023-12-28T06:33:06;9.30;83.10
73777;DHT22;62088;50.240;2.696;2023-12-28T06:35:34;9.40;83.10
73777;DHT22;62088;50.240;2.696;2023-12-28T06:38:01;9.30;83.10
73777;DHT22;62088;50.240;2.696;2023-12-28T06:40:29;9.30;83.10
73777;DHT22;62088;50.240;2.696;2023-12-28T06:42:56;9.40;83.10
73777;DHT22;62088;50.240;2.696;2023-12-28T06:45:23;9.40;83.10
73777;DHT22;62088;50.240;2.696;2023-12-28T06:47:55;9.30;83.10
73777;DHT22;62088;50.240;2.696;2023-12-28T06:50:22;9.40;83.10
73777;DHT22;62088;50.240;2.696;2023-12-28T06:52:49;9.30;83.10
73777;DHT22;62088;50.240;2.696;2023-12-28T06:55:16;9.40;83.10
73777;DHT22;62088;50.240;2.696;2023-12-28T06:57:43;9.40;83.10
73777;DHT22;62088;50.240;2.696;2023-12-28T07:00:11;9.40;83.00
73777;DHT22;62088;50.240;2.696;2023-12-28T07:02:38;9.40;83.00
73777;DHT22;62088;50.240;2.696;2023-12-28T07:05:05;9.30;83.00
73777;DHT22;62088;50.240;2.696;2023-12-28T07:07:33;9.30;83.00
73777;DHT22;62088;50.240;2.696;2023-12-28T07:10:00;9.30;83.00
73777;DHT22;62088;50.240;2.696;2023-12-28T07:12:27;9.30;83.00
73777;DHT22;62088;50.240;2.696;2023-12-28T07:14:54;9.30;83.00
73777;DHT22;62088;50.240;2.696;2023-12-28T07:17:21;9.30;83.00
73777;DHT22;62088;50.240;2.696;2023-12-28T07:19:48;9.30;83.00
73777;DHT22;62088;50.240;2.696;2023-12-28T07:22:16;9.30;82.90
73777;DHT22;62088;50.240;2.696;2023-12-28T07:24:43;9.30;82.90
73777;DHT22;62088;50.240;2.696;2023-12-28T07:27:10;9.30;82.90
73777;DHT22;62088;50.240;2.696;2023-12-28T07:29:37;9.30;82.90
73777;DHT22;62088;50.240;2.696;2023-12-28T07:32:05;9.30;82.90
73777;DHT22;62088;50.240;2.696;2023-12-28T07:34:32;9.30;82.90
73777;DHT22;62088;50.240;2.696;2023-12-28T07:37:00;9.30;82.80
73777;DHT22;62088;50.240;2.696;2023-12-28T07:39:27;9.30;82.80
73777;DHT22;62088;50.240;2.696;2023-12-28T07:41:54;9.30;82.70
73777;DHT22;62088;50.240;2.696;2023-12-28T07:44:22;9.30;82.70
73777;DHT22;62088;50.240;2.696;2023-12-28T07:46:49;9.20;82.70
73777;DHT22;62088;50.240;2.696;2023-12-28T07:49:16;9.30;82.70
73777;DHT22;62088;50.240;2.696;2023-12-28T07:51:44;9.20;82.60
73777;DHT22;62088;50.240;2.696;2023-12-28T07:54:11;9.30;82.60
73777;DHT22;62088;50.240;2.696;2023-12-28T07:56:38;9.30;82.70
73777;DHT22;62088;50.240;2.696;2023-12-28T07:59:07;9.30;82.60
73777;DHT22;62088;50.240;2.696;2023-12-28T08:01:36;9.30;82.60
73777;DHT22;62088;50.240;2.696;2023-12-28T08:04:03;9.30;82.60
73777;DHT22;62088;50.240;2.696;2023-12-28T08:06:30;9.30;82.70
73777;DHT22;62088;50.240;2.696;2023-12-28T08:08:59;9.30;82.70
73777;DHT22;62088;50.240;2.696;2023-12-28T08:11:30;9.20;82.70
73777;DHT22;62088;50.240;2.696;2023-12-28T08:13:57;9.20;82.70
73777;DHT22;62088;50.240;2.696;2023-12-28T08:16:24;9.20;82.80
73777;DHT22;62088;50.240;2.696;2023-12-28T08:18:51;9.20;82.80
73777;DHT22;62088;50.240;2.696;2023-12-28T08:21:18;9.20;82.80
73777;DHT22;62088;50.240;2.696;2023-12-28T08:23:46;9.20;82.80
73777;DHT22;62088;50.240;2.696;2023-12-28T08:26:13;9.20;82.90
73777;DHT22;62088;50.240;2.696;2023-12-28T08:28:40;9.20;82.90
73777;DHT22;62088;50.240;2.696;2023-12-28T08:31:08;9.20;82.90
73777;DHT22;62088;50.240;2.696;2023-12-28T08:33:36;9.20;82.90
73777;DHT22;62088;50.240;2.696;2023-12-28T08:36:07;9.30;83.00
73777;DHT22;62088;50.240;2.696;2023-12-28T08:38:35;9.30;83.00
73777;DHT22;62088;50.240;2.696;2023-12-28T08:41:02;9.30;82.90
73777;DHT22;62088;50.240;2.696;2023-12-28T08:43:30;9.30;82.90
73777;DHT22;62088;50.240;2.696;2023-12-28T08:45:57;9.30;82.90
73777;DHT22;62088;50.240;2.696;2023-12-28T08:48:24;9.30;83.00
73777;DHT22;62088;50.240;2.696;2023-12-28T08:50:52;9.40;83.00
73777;DHT22;62088;50.240;2.696;2023-12-28T08:53:19;9.40;82.90
73777;DHT22;62088;50.240;2.696;2023-12-28T08:55:46;9.40;82.90
73777;DHT22;62088;50.240;2.696;2023-12-28T08:58:13;9.40;82.90
73777;DHT22;62088;50.240;2.696;2023-12-28T09:00:41;9.40;82.80
73777;DHT22;62088;50.240;2.696;2023-12-28T09:03:08;9.40;82.80
73777;DHT22;62088;50.240;2.696;2023-12-28T09:05:35;9.50;82.80
73777;DHT22;62088;50.240;2.696;2023-12-28T09:08:02;9.50;82.70
73777;DHT22;62088;50.240;2.696;2023-12-28T09:10:29;9.50;82.60
73777;DHT22;62088;50.240;2.696;2023-12-28T09:12:56;9.60;82.60
73777;DHT22;62088;50.240;2.696;2023-12-28T09:15:24;9.60;82.50
73777;DHT22;62088;50.240;2.696;2023-12-28T09:17:51;9.60;82.50
73777;DHT22;62088;50.240;2.696;2023-12-28T09:20:18;9.70;82.40
73777;DHT22;62088;50.240;2.696;2023-12-28T09:22:46;9.70;82.30
73777;DHT22;62088;50.240;2.696;2023-12-28T09:25:14;9.70;82.30
73777;DHT22;62088;50.240;2.696;2023-12-28T09:27:41;9.70;82.30
73777;DHT22;62088;50.240;2.696;2023-12-28T09:30:09;9.70;82.20
73777;DHT22;62088;50.240;2.696;2023-12-28T09:32:38;9.80;82.20
73777;DHT22;62088;50.240;2.696;2023-12-28T09:35:05;9.80;82.20
73777;DHT22;62088;50.240;2.696;2023-12-28T09:37:32;9.80;82.10
73777;DHT22;62088;50.240;2.696;2023-12-28T09:40:00;9.90;82.10
73777;DHT22;62088;50.240;2.696;2023-12-28T09:42:44;9.90;82.10
73777;DHT22;62088;50.240;2.696;2023-12-28T09:45:15;9.90;82.10
73777;DHT22;62088;50.240;2.696;2023-12-28T09:47:42;9.90;82.10
73777;DHT22;62088;50.240;2.696;2023-12-28T09:50:13;9.90;82.00
73777;DHT22;62088;50.240;2.696;2023-12-28T09:52:42;10.00;82.00
73777;DHT22;62088;50.240;2.696;2023-12-28T09:55:09;10.00;82.00
73777;DHT22;62088;50.240;2.696;2023-12-28T09:57:37;10.00;81.90
73777;DHT22;62088;50.240;2.696;2023-12-28T10:00:05;10.10;81.80
73777;DHT22;62088;50.240;2.696;2023-12-28T10:02:39;10.10;81.80
73777;DHT22;62088;50.240;2.696;2023-12-28T10:05:07;10.10;81.70
73777;DHT22;62088;50.240;2.696;2023-12-28T10:07:41;10.10;81.60
73777;DHT22;62088;50.240;2.696;2023-12-28T10:10:09;10.20;81.60
73777;DHT22;62088;50.240;2.696;2023-12-28T10:12:37;10.20;81.60
73777;DHT22;62088;50.240;2.696;2023-12-28T10:15:06;10.20;81.50
73777;DHT22;62088;50.240;2.696;2023-12-28T10:17:33;10.20;81.50
73777;DHT22;62088;50.240;2.696;2023-12-28T10:20:03;10.30;81.50
73777;DHT22;62088;50.240;2.696;2023-12-28T10:22:34;10.30;81.50
73777;DHT22;62088;50.240;2.696;2023-12-28T10:25:02;10.40;81.40
73777;DHT22;62088;50.240;2.696;2023-12-28T10:27:30;10.40;81.30
73777;DHT22;62088;50.240;2.696;2023-12-28T10:29:57;10.40;81.20
73777;DHT22;62088;50.240;2.696;2023-12-28T10:32:25;10.40;81.10
73777;DHT22;62088;50.240;2.696;2023-12-28T10:34:53;10.40;81.10
73777;DHT22;62088;50.240;2.696;2023-12-28T10:37:21;10.50;80.90
73777;DHT22;62088;50.240;2.696;2023-12-28T10:39:49;10.50;80.80
73777;DHT22;62088;50.240;2.696;2023-12-28T10:42:58;10.60;80.80
73777;DHT22;62088;50.240;2.696;2023-12-28T10:45:32;10.60;80.50
73777;DHT22;62088;50.240;2.696;2023-12-28T10:48:28;10.70;80.40
73777;DHT22;62088;50.240;2.696;2023-12-28T10:50:59;10.70;80.30
73777;DHT22;62088;50.240;2.696;2023-12-28T10:53:49;10.70;80.30
73777;DHT22;62088;50.240;2.696;2023-12-28T10:56:33;10.70;80.20
73777;DHT22;62088;50.240;2.696;2023-12-28T11:01:47;10.80;79.80
73777;DHT22;62088;50.240;2.696;2023-12-28T11:04:29;10.80;79.70
73777;DHT22;62088;50.240;2.696;2023-12-28T11:06:59;10.80;79.60
73777;DHT22;62088;50.240;2.696;2023-12-28T11:09:31;10.90;79.40
73777;DHT22;62088;50.240;2.696;2023-12-28T11:11:59;10.90;79.20
73777;DHT22;62088;50.240;2.696;2023-12-28T11:14:28;10.90;79.30
73777;DHT22;62088;50.240;2.696;2023-12-28T11:16:55;10.90;79.30
73777;DHT22;62088;50.240;2.696;2023-12-28T11:19:28;10.90;79.30
73777;DHT22;62088;50.240;2.696;2023-12-28T11:21:57;10.90;79.20
73777;DHT22;62088;50.240;2.696;2023-12-28T11:24:28;11.00;79.10
73777;DHT22;62088;50.240;2.696;2023-12-28T11:26:56;11.00;79.10
73777;DHT22;62088;50.240;2.696;2023-12-28T11:29:24;11.00;79.00
73777;DHT22;62088;50.240;2.696;2023-12-28T11:31:57;11.10;78.90
73777;DHT22;62088;50.240;2.696;2023-12-28T11:34:31;11.10;78.80
73777;DHT22;62088;50.240;2.696;2023-12-28T11:37:12;11.10;78.70
73777;DHT22;62088;50.240;2.696;2023-12-28T11:39:41;11.10;78.70
73777;DHT22;62088;50.240;2.696;2023-12-28T11:42:11;11.10;78.80
73777;DHT22;62088;50.240;2.696;2023-12-28T11:44:43;11.10;78.70
73777;DHT22;62088;50.240;2.696;2023-12-28T11:49:50;11.10;78.30
73777;DHT22;62088;50.240;2.696;2023-12-28T11:52:27;11.10;78.20
73777;DHT22;62088;50.240;2.696;2023-12-28T11:54:55;11.10;78.20
73777;DHT22;62088;50.240;2.696;2023-12-28T11:57:23;11.10;78.10
73777;DHT22;62088;50.240;2.696;2023-12-28T11:59:58;11.20;78.10
73777;DHT22;62088;50.240;2.696;2023-12-28T12:02:27;11.20;77.90
73777;DHT22;62088;50.240;2.696;2023-12-28T12:04:55;11.20;77.70
73777;DHT22;62088;50.240;2.696;2023-12-28T12:07:24;11.20;77.60
73777;DHT22;62088;50.240;2.696;2023-12-28T12:09:57;11.30;77.60
73777;DHT22;62088;50.240;2.696;2023-12-28T12:12:25;11.40;77.50
73777;DHT22;62088;50.240;2.696;2023-12-28T12:14:52;11.40;77.50
73777;DHT22;62088;50.240;2.696;2023-12-28T12:17:20;11.40;77.20
73777;DHT22;62088;50.240;2.696;2023-12-28T12:19:47;11.40;77.10
73777;DHT22;62088;50.240;2.696;2023-12-28T12:22:18;11.40;77.00
73777;DHT22;62088;50.240;2.696;2023-12-28T12:24:47;11.40;76.90
73777;DHT22;62088;50.240;2.696;2023-12-28T12:27:16;11.40;76.90
73777;DHT22;62088;50.240;2.696;2023-12-28T12:29:44;11.40;76.70
73777;DHT22;62088;50.240;2.696;2023-12-28T12:32:11;11.40;76.60
73777;DHT22;62088;50.240;2.696;2023-12-28T12:34:39;11.40;76.60
73777;DHT22;62088;50.240;2.696;2023-12-28T12:37:07;11.40;76.60
73777;DHT22;62088;50.240;2.696;2023-12-28T12:39:34;11.40;76.60
73777;DHT22;62088;50.240;2.696;2023-12-28T12:42:03;11.40;76.60
73777;DHT22;62088;50.240;2.696;2023-12-28T12:44:30;11.40;76.60
73777;DHT22;62088;50.240;2.696;2023-12-28T12:46:58;11.40;76.40
73777;DHT22;62088;50.240;2.696;2023-12-28T12:49:27;11.40;76.20
73777;DHT22;62088;50.240;2.696;2023-12-28T12:51:57;11.40;76.10
73777;DHT22;62088;50.240;2.696;2023-12-28T12:54:29;11.50;76.10
73777;DHT22;62088;50.240;2.696;2023-12-28T12:56:56;11.50;76.00
73777;DHT22;62088;50.240;2.696;2023-12-28T12:59:24;11.50;75.80
73777;DHT22;62088;50.240;2.696;2023-12-28T13:01:52;11.50;75.70
73777;DHT22;62088;50.240;2.696;2023-12-28T13:04:20;11.50;75.70
73777;DHT22;62088;50.240;2.696;2023-12-28T13:06:48;11.50;75.60
73777;DHT22;62088;50.240;2.696;2023-12-28T13:09:16;11.50;75.60
73777;DHT22;62088;50.240;2.696;2023-12-28T13:11:44;11.60;75.50
73777;DHT22;62088;50.240;2.696;2023-12-28T13:14:13;11.50;75.50
73777;DHT22;62088;50.240;2.696;2023-12-28T13:16:58;11.50;75.40
73777;DHT22;62088;50.240;2.696;2023-12-28T13:19:27;11.50;75.00
73777;DHT22;62088;50.240;2.696;2023-12-28T13:21:54;11.50;74.80
73777;DHT22;62088;50.240;2.696;2023-12-28T13:24:21;11.50;74.80
73777;DHT22;62088;50.240;2.696;2023-12-28T13:26:48;11.50;74.90
73777;DHT22;62088;50.240;2.696;2023-12-28T13:29:15;11.40;75.00
73777;DHT22;62088;50.240;2.696;2023-12-28T13:31:42;11.40;75.00
73777;DHT22;62088;50.240;2.696;2023-12-28T13:34:11;11.40;74.80
73777;DHT22;62088;50.240;2.696;2023-12-28T13:36:39;11.40;74.70
73777;DHT22;62088;50.240;2.696;2023-12-28T13:39:06;11.40;74.70
73777;DHT22;62088;50.240;2.696;2023-12-28T13:41:35;11.40;74.70
73777;DHT22;62088;50.240;2.696;2023-12-28T13:44:02;11.40;74.70
73777;DHT22;62088;50.240;2.696;2023-12-28T13:46:31;11.30;74.80
73777;DHT22;62088;50.240;2.696;2023-12-28T13:48:58;11.30;74.70
73777;DHT22;62088;50.240;2.696;2023-12-28T13:51:25;11.30;74.60
73777;DHT22;62088;50.240;2.696;2023-12-28T13:53:52;11.30;74.70
73777;DHT22;62088;50.240;2.696;2023-12-28T13:56:20;11.30;74.60
73777;DHT22;62088;50.240;2.696;2023-12-28T13:58:47;11.20;74.60
73777;DHT22;62088;50.240;2.696;2023-12-28T14:01:14;11.20;74.60
73777;DHT22;62088;50.240;2.696;2023-12-28T14:03:41;11.20;74.60
73777;DHT22;62088;50.240;2.696;2023-12-28T14:06:08;11.20;74.60
73777;DHT22;62088;50.240;2.696;2023-12-28T14:08:36;11.20;74.60
73777;DHT22;62088;50.240;2.696;2023-12-28T14:11:03;11.20;74.50
73777;DHT22;62088;50.240;2.696;2023-12-28T14:13:34;11.10;74.30
73777;DHT22;62088;50.240;2.696;2023-12-28T14:16:03;11.10;74.40
73777;DHT22;62088;50.240;2.696;2023-12-28T14:18:30;11.10;74.50
73777;DHT22;62088;50.240;2.696;2023-12-28T14:20:57;11.10;74.60
73777;DHT22;62088;50.240;2.696;2023-12-28T14:23:25;11.10;74.70
73777;DHT22;62088;50.240;2.696;2023-12-28T14:25:52;11.10;74.80
73777;DHT22;62088;50.240;2.696;2023-12-28T14:28:22;11.10;74.80
73777;DHT22;62088;50.240;2.696;2023-12-28T14:30:51;11.10;74.90
73777;DHT22;62088;50.240;2.696;2023-12-28T14:33:19;11.00;75.00
73777;DHT22;62088;50.240;2.696;2023-12-28T14:35:46;11.00;75.00
73777;DHT22;62088;50.240;2.696;2023-12-28T14:38:15;11.00;75.10
73777;DHT22;62088;50.240;2.696;2023-12-28T14:40:42;11.00;75.00
73777;DHT22;62088;50.240;2.696;2023-12-28T14:43:09;11.00;75.00
73777;DHT22;62088;50.240;2.696;2023-12-28T14:45:36;10.90;75.00
73777;DHT22;62088;50.240;2.696;2023-12-28T14:48:03;11.00;75.00
73777;DHT22;62088;50.240;2.696;2023-12-28T14:50:31;11.00;74.90
73777;DHT22;62088;50.240;2.696;2023-12-28T14:52:58;10.90;74.90
73777;DHT22;62088;50.240;2.696;2023-12-28T14:55:25;10.90;74.90
73777;DHT22;62088;50.240;2.696;2023-12-28T14:57:54;10.90;75.00
73777;DHT22;62088;50.240;2.696;2023-12-28T15:00:21;10.90;75.00
73777;DHT22;62088;50.240;2.696;2023-12-28T15:02:49;10.90;75.10
73777;DHT22;62088;50.240;2.696;2023-12-28T15:05:16;10.90;75.20
73777;DHT22;62088;50.240;2.696;2023-12-28T15:07:43;10.80;75.20
73777;DHT22;62088;50.240;2.696;2023-12-28T15:10:11;10.80;75.20
73777;DHT22;62088;50.240;2.696;2023-12-28T15:12:39;10.80;75.30
73777;DHT22;62088;50.240;2.696;2023-12-28T15:15:06;10.80;75.40
73777;DHT22;62088;50.240;2.696;2023-12-28T15:17:34;10.70;75.40
73777;DHT22;62088;50.240;2.696;2023-12-28T15:20:01;10.70;75.50
73777;DHT22;62088;50.240;2.696;2023-12-28T15:22:29;10.70;75.50
73777;DHT22;62088;50.240;2.696;2023-12-28T15:24:56;10.70;75.50
73777;DHT22;62088;50.240;2.696;2023-12-28T15:27:25;10.60;75.60
73777;DHT22;62088;50.240;2.696;2023-12-28T15:29:53;10.60;75.60
73777;DHT22;62088;50.240;2.696;2023-12-28T15:32:21;10.60;75.70
73777;DHT22;62088;50.240;2.696;2023-12-28T15:34:48;10.60;75.80
73777;DHT22;62088;50.240;2.696;2023-12-28T15:37:15;10.50;75.90
73777;DHT22;62088;50.240;2.696;2023-12-28T15:39:42;10.50;75.90
73777;DHT22;62088;50.240;2.696;2023-12-28T15:42:09;10.50;75.90
73777;DHT22;62088;50.240;2.696;2023-12-28T15:44:36;10.40;76.00
73777;DHT22;62088;50.240;2.696;2023-12-28T15:47:03;10.40;76.10
73777;DHT22;62088;50.240;2.696;2023-12-28T15:49:30;10.40;76.20